sensor_id;sensor_type;location;lat;lon;timestamp;P1;durP1;ratioP1;P2;durP2;ratioP2
9547;SDS011;4812;51.992;8.648;2023-02-21T00:04:08;62.50;;;27.93;;
9547;SDS011;4812;51.992;8.648;2023-02-21T00:06:55;69.13;;;26.03;;
9547;SDS011;4812;51.992;8.648;2023-02-21T00:09:40;58.17;;;24.67;;
9547;SDS011;4812;51.992;8.648;2023-02-21T00:12:38;72.77;;;28.17;;
9547;SDS011;4812;51.992;8.648;2023-02-21T00:15:24;55.67;;;25.27;;
9547;SDS011;4812;51.992;8.648;2023-02-21T00:21:13;66.90;;;25.80;;
9547;SDS011;4812;51.992;8.648;2023-02-21T00:27:02;60.33;;;24.77;;
9547;SDS011;4812;51.992;8.648;2023-02-21T00:29:48;71.40;;;29.00;;
9547;SDS011;4812;51.992;8.648;2023-02-21T00:32:33;73.13;;;29.07;;
9547;SDS011;4812;51.992;8.648;2023-02-21T00:35:19;72.93;;;29.57;;
9547;SDS011;4812;51.992;8.648;2023-02-21T00:38:04;89.43;;;32.93;;
9547;SDS011;4812;51.992;8.648;2023-02-21T00:40:51;89.60;;;31.37;;
9547;SDS011;4812;51.992;8.648;2023-02-21T00:43:54;85.13;;;31.60;;
9547;SDS011;4812;51.992;8.648;2023-02-21T00:46:39;87.17;;;32.63;;
9547;SDS011;4812;51.992;8.648;2023-02-21T00:49:24;92.87;;;32.90;;
9547;SDS011;4812;51.992;8.648;2023-02-21T00:52:10;81.73;;;31.03;;
9547;SDS011;4812;51.992;8.648;2023-02-21T00:55:01;93.00;;;33.03;;
9547;SDS011;4812;51.992;8.648;2023-02-21T00:57:47;94.50;;;31.93;;
9547;SDS011;4812;51.992;8.648;2023-02-21T01:00:33;94.63;;;34.53;;
9547;SDS011;4812;51.992;8.648;2023-02-21T01:03:18;96.33;;;33.33;;
9547;SDS011;4812;51.992;8.648;2023-02-21T01:08:51;91.23;;;34.10;;
9547;SDS011;4812;51.992;8.648;2023-02-21T01:11:36;83.93;;;31.40;;
9547;SDS011;4812;51.992;8.648;2023-02-21T01:14:21;88.53;;;30.33;;
9547;SDS011;4812;51.992;8.648;2023-02-21T01:17:07;89.43;;;32.47;;
9547;SDS011;4812;51.992;8.648;2023-02-21T01:19:52;90.97;;;32.43;;
9547;SDS011;4812;51.992;8.648;2023-02-21T01:22:37;84.63;;;30.87;;
9547;SDS011;4812;51.992;8.648;2023-02-21T01:28:21;90.47;;;32.27;;
9547;SDS011;4812;51.992;8.648;2023-02-21T01:31:06;78.20;;;29.03;;
9547;SDS011;4812;51.992;8.648;2023-02-21T01:36:40;83.27;;;30.77;;
9547;SDS011;4812;51.992;8.648;2023-02-21T01:42:15;83.03;;;31.07;;
9547;SDS011;4812;51.992;8.648;2023-02-21T01:48:22;86.90;;;31.37;;
9547;SDS011;4812;51.992;8.648;2023-02-21T01:51:09;89.80;;;32.47;;
9547;SDS011;4812;51.992;8.648;2023-02-21T01:53:55;96.93;;;32.57;;
9547;SDS011;4812;51.992;8.648;2023-02-21T01:56:40;91.63;;;31.93;;
9547;SDS011;4812;51.992;8.648;2023-02-21T01:59:26;92.13;;;31.80;;
9547;SDS011;4812;51.992;8.648;2023-02-21T02:02:13;88.97;;;33.47;;
9547;SDS011;4812;51.992;8.648;2023-02-21T02:07:59;91.27;;;33.17;;
9547;SDS011;4812;51.992;8.648;2023-02-21T02:13:52;103.60;;;34.17;;
9547;SDS011;4812;51.992;8.648;2023-02-21T02:16:28;95.40;;;34.20;;
9547;SDS011;4812;51.992;8.648;2023-02-21T02:22:20;83.57;;;31.30;;
9547;SDS011;4812;51.992;8.648;2023-02-21T02:25:12;101.77;;;34.13;;
9547;SDS011;4812;51.992;8.648;2023-02-21T02:27:59;99.03;;;31.87;;
9547;SDS011;4812;51.992;8.648;2023-02-21T02:30:49;91.77;;;31.57;;
9547;SDS011;4812;51.992;8.648;2023-02-21T02:36:25;93.63;;;32.30;;
9547;SDS011;4812;51.992;8.648;2023-02-21T02:41:56;107.40;;;32.87;;
9547;SDS011;4812;51.992;8.648;2023-02-21T02:44:28;91.20;;;32.47;;
9547;SDS011;4812;51.992;8.648;2023-02-21T02:46:58;106.07;;;33.33;;
9547;SDS011;4812;51.992;8.648;2023-02-21T02:49:28;98.13;;;32.77;;
9547;SDS011;4812;51.992;8.648;2023-02-21T02:52:02;80.57;;;30.80;;
9547;SDS011;4812;51.992;8.648;2023-02-21T02:54:31;94.90;;;32.47;;
9547;SDS011;4812;51.992;8.648;2023-02-21T02:56:59;95.33;;;32.67;;
9547;SDS011;4812;51.992;8.648;2023-02-21T02:59:28;100.30;;;34.50;;
9547;SDS011;4812;51.992;8.648;2023-02-21T03:04:52;101.27;;;31.43;;
9547;SDS011;4812;51.992;8.648;2023-02-21T03:07:30;94.73;;;33.40;;
9547;SDS011;4812;51.992;8.648;2023-02-21T03:10:06;92.40;;;32.53;;
9547;SDS011;4812;51.992;8.648;2023-02-21T03:12:41;89.20;;;33.30;;
9547;SDS011;4812;51.992;8.648;2023-02-21T03:15:14;106.03;;;33.53;;
9547;SDS011;4812;51.992;8.648;2023-02-21T03:17:45;99.77;;;34.67;;
9547;SDS011;4812;51.992;8.648;2023-02-21T03:20:15;98.67;;;33.17;;
9547;SDS011;4812;51.992;8.648;2023-02-21T03:22:45;110.87;;;33.67;;
9547;SDS011;4812;51.992;8.648;2023-02-21T03:25:12;101.20;;;34.60;;
9547;SDS011;4812;51.992;8.648;2023-02-21T03:27:44;94.57;;;31.80;;
9547;SDS011;4812;51.992;8.648;2023-02-21T03:33:10;101.97;;;31.87;;
9547;SDS011;4812;51.992;8.648;2023-02-21T03:35:38;95.30;;;33.83;;
9547;SDS011;4812;51.992;8.648;2023-02-21T03:38:07;96.43;;;33.10;;
9547;SDS011;4812;51.992;8.648;2023-02-21T03:43:38;95.83;;;33.70;;
9547;SDS011;4812;51.992;8.648;2023-02-21T03:46:06;91.57;;;31.43;;
9547;SDS011;4812;51.992;8.648;2023-02-21T03:48:34;93.40;;;32.67;;
9547;SDS011;4812;51.992;8.648;2023-02-21T03:51:31;104.57;;;33.40;;
9547;SDS011;4812;51.992;8.648;2023-02-21T03:54:00;97.53;;;33.93;;
9547;SDS011;4812;51.992;8.648;2023-02-21T03:56:36;107.70;;;34.73;;
9547;SDS011;4812;51.992;8.648;2023-02-21T04:02:26;101.60;;;31.97;;
9547;SDS011;4812;51.992;8.648;2023-02-21T04:04:55;105.13;;;33.17;;
9547;SDS011;4812;51.992;8.648;2023-02-21T04:07:23;99.30;;;33.43;;
9547;SDS011;4812;51.992;8.648;2023-02-21T04:09:53;109.23;;;34.37;;
9547;SDS011;4812;51.992;8.648;2023-02-21T04:12:33;100.80;;;33.17;;
9547;SDS011;4812;51.992;8.648;2023-02-21T04:17:59;109.77;;;35.13;;
9547;SDS011;4812;51.992;8.648;2023-02-21T04:20:27;111.53;;;35.40;;
9547;SDS011;4812;51.992;8.648;2023-02-21T04:22:57;108.53;;;34.30;;
9547;SDS011;4812;51.992;8.648;2023-02-21T04:25:31;98.90;;;33.33;;
9547;SDS011;4812;51.992;8.648;2023-02-21T04:28:20;104.93;;;35.47;;
9547;SDS011;4812;51.992;8.648;2023-02-21T04:30:47;112.77;;;35.63;;
9547;SDS011;4812;51.992;8.648;2023-02-21T04:33:15;101.93;;;33.63;;
9547;SDS011;4812;51.992;8.648;2023-02-21T04:35:43;121.87;;;35.67;;
9547;SDS011;4812;51.992;8.648;2023-02-21T04:38:17;98.00;;;33.53;;
9547;SDS011;4812;51.992;8.648;2023-02-21T04:40:46;116.80;;;34.83;;
9547;SDS011;4812;51.992;8.648;2023-02-21T04:43:13;125.10;;;36.57;;
9547;SDS011;4812;51.992;8.648;2023-02-21T04:48:34;103.43;;;32.83;;
9547;SDS011;4812;51.992;8.648;2023-02-21T04:51:01;111.20;;;34.60;;
9547;SDS011;4812;51.992;8.648;2023-02-21T04:53:40;113.03;;;36.33;;
9547;SDS011;4812;51.992;8.648;2023-02-21T04:56:09;106.23;;;35.53;;
9547;SDS011;4812;51.992;8.648;2023-02-21T04:58:37;103.90;;;33.90;;
9547;SDS011;4812;51.992;8.648;2023-02-21T05:01:13;110.53;;;35.73;;
9547;SDS011;4812;51.992;8.648;2023-02-21T05:03:41;113.80;;;35.63;;
9547;SDS011;4812;51.992;8.648;2023-02-21T05:06:09;111.73;;;34.83;;
9547;SDS011;4812;51.992;8.648;2023-02-21T05:08:36;100.43;;;32.90;;
9547;SDS011;4812;51.992;8.648;2023-02-21T05:11:04;102.03;;;34.33;;
9547;SDS011;4812;51.992;8.648;2023-02-21T05:13:35;109.33;;;34.77;;
9547;SDS011;4812;51.992;8.648;2023-02-21T05:16:02;115.07;;;35.27;;
9547;SDS011;4812;51.992;8.648;2023-02-21T05:18:30;120.30;;;36.97;;
9547;SDS011;4812;51.992;8.648;2023-02-21T05:20:59;120.80;;;36.03;;
9547;SDS011;4812;51.992;8.648;2023-02-21T05:23:28;100.03;;;33.53;;
9547;SDS011;4812;51.992;8.648;2023-02-21T05:26:04;110.80;;;33.57;;
9547;SDS011;4812;51.992;8.648;2023-02-21T05:28:35;122.20;;;33.70;;
9547;SDS011;4812;51.992;8.648;2023-02-21T05:31:03;116.30;;;33.97;;
9547;SDS011;4812;51.992;8.648;2023-02-21T05:33:31;113.43;;;33.53;;
9547;SDS011;4812;51.992;8.648;2023-02-21T05:35:59;105.47;;;30.60;;
9547;SDS011;4812;51.992;8.648;2023-02-21T05:38:26;119.07;;;34.27;;
9547;SDS011;4812;51.992;8.648;2023-02-21T05:40:54;115.60;;;34.30;;
9547;SDS011;4812;51.992;8.648;2023-02-21T05:43:21;119.63;;;34.13;;
9547;SDS011;4812;51.992;8.648;2023-02-21T05:45:50;111.27;;;33.37;;
9547;SDS011;4812;51.992;8.648;2023-02-21T05:51:12;104.43;;;33.77;;
9547;SDS011;4812;51.992;8.648;2023-02-21T05:53:40;114.00;;;34.10;;
9547;SDS011;4812;51.992;8.648;2023-02-21T05:56:08;120.43;;;34.90;;
9547;SDS011;4812;51.992;8.648;2023-02-21T05:58:36;115.37;;;34.47;;
9547;SDS011;4812;51.992;8.648;2023-02-21T06:03:55;109.27;;;33.10;;
9547;SDS011;4812;51.992;8.648;2023-02-21T06:06:22;118.33;;;32.63;;
9547;SDS011;4812;51.992;8.648;2023-02-21T06:08:50;122.20;;;33.65;;
9547;SDS011;4812;51.992;8.648;2023-02-21T06:11:21;116.63;;;34.10;;
9547;SDS011;4812;51.992;8.648;2023-02-21T06:16:43;121.73;;;32.97;;
9547;SDS011;4812;51.992;8.648;2023-02-21T06:19:12;93.97;;;27.53;;
9547;SDS011;4812;51.992;8.648;2023-02-21T06:21:41;117.00;;;30.93;;
9547;SDS011;4812;51.992;8.648;2023-02-21T06:24:09;111.70;;;31.60;;
9547;SDS011;4812;51.992;8.648;2023-02-21T06:29:25;104.17;;;30.20;;
9547;SDS011;4812;51.992;8.648;2023-02-21T06:31:54;106.40;;;31.53;;
9547;SDS011;4812;51.992;8.648;2023-02-21T06:34:24;97.97;;;29.30;;
9547;SDS011;4812;51.992;8.648;2023-02-21T06:36:52;101.80;;;29.97;;
9547;SDS011;4812;51.992;8.648;2023-02-21T06:42:22;102.43;;;31.80;;
9547;SDS011;4812;51.992;8.648;2023-02-21T06:44:50;98.97;;;29.97;;
9547;SDS011;4812;51.992;8.648;2023-02-21T06:47:20;102.77;;;27.97;;
9547;SDS011;4812;51.992;8.648;2023-02-21T06:49:59;114.03;;;30.33;;
9547;SDS011;4812;51.992;8.648;2023-02-21T06:52:27;97.27;;;26.03;;
9547;SDS011;4812;51.992;8.648;2023-02-21T06:54:54;92.67;;;28.20;;
9547;SDS011;4812;51.992;8.648;2023-02-21T06:57:24;99.00;;;28.10;;
9547;SDS011;4812;51.992;8.648;2023-02-21T06:59:52;88.50;;;26.30;;
9547;SDS011;4812;51.992;8.648;2023-02-21T07:02:19;95.03;;;27.17;;
9547;SDS011;4812;51.992;8.648;2023-02-21T07:04:47;92.47;;;29.10;;
9547;SDS011;4812;51.992;8.648;2023-02-21T07:10:15;87.67;;;27.23;;
9547;SDS011;4812;51.992;8.648;2023-02-21T07:15:32;96.80;;;26.87;;
9547;SDS011;4812;51.992;8.648;2023-02-21T07:17:59;99.97;;;28.00;;
9547;SDS011;4812;51.992;8.648;2023-02-21T07:20:27;102.70;;;29.20;;
9547;SDS011;4812;51.992;8.648;2023-02-21T07:22:55;95.40;;;29.53;;
9547;SDS011;4812;51.992;8.648;2023-02-21T07:25:24;94.37;;;29.67;;
9547;SDS011;4812;51.992;8.648;2023-02-21T07:27:51;102.80;;;29.97;;
9547;SDS011;4812;51.992;8.648;2023-02-21T07:30:19;97.50;;;27.67;;
9547;SDS011;4812;51.992;8.648;2023-02-21T07:32:47;94.83;;;29.97;;
9547;SDS011;4812;51.992;8.648;2023-02-21T07:38:02;97.00;;;28.40;;
9547;SDS011;4812;51.992;8.648;2023-02-21T07:40:31;86.63;;;27.27;;
9547;SDS011;4812;51.992;8.648;2023-02-21T07:43:30;102.53;;;29.90;;
9547;SDS011;4812;51.992;8.648;2023-02-21T07:45:58;89.47;;;27.63;;
9547;SDS011;4812;51.992;8.648;2023-02-21T07:48:26;88.50;;;26.93;;
9547;SDS011;4812;51.992;8.648;2023-02-21T07:54:05;80.17;;;26.53;;
9547;SDS011;4812;51.992;8.648;2023-02-21T07:59:36;90.80;;;27.17;;
9547;SDS011;4812;51.992;8.648;2023-02-21T08:02:04;90.27;;;26.07;;
9547;SDS011;4812;51.992;8.648;2023-02-21T08:04:32;82.40;;;26.83;;
9547;SDS011;4812;51.992;8.648;2023-02-21T08:07:00;75.50;;;26.03;;
9547;SDS011;4812;51.992;8.648;2023-02-21T08:12:26;86.20;;;24.87;;
9547;SDS011;4812;51.992;8.648;2023-02-21T08:14:55;67.53;;;23.87;;
9547;SDS011;4812;51.992;8.648;2023-02-21T08:20:07;78.70;;;25.30;;
9547;SDS011;4812;51.992;8.648;2023-02-21T08:22:35;63.80;;;23.03;;
9547;SDS011;4812;51.992;8.648;2023-02-21T08:25:03;62.70;;;21.37;;
9547;SDS011;4812;51.992;8.648;2023-02-21T08:27:31;71.90;;;24.50;;
9547;SDS011;4812;51.992;8.648;2023-02-21T08:30:00;64.13;;;22.57;;
9547;SDS011;4812;51.992;8.648;2023-02-21T08:32:28;73.57;;;24.67;;
9547;SDS011;4812;51.992;8.648;2023-02-21T08:34:55;76.37;;;25.83;;
9547;SDS011;4812;51.992;8.648;2023-02-21T08:40:25;70.93;;;24.13;;
9547;SDS011;4812;51.992;8.648;2023-02-21T08:42:52;74.90;;;23.97;;
9547;SDS011;4812;51.992;8.648;2023-02-21T08:47:50;71.00;;;24.47;;
9547;SDS011;4812;51.992;8.648;2023-02-21T08:50:19;68.07;;;23.50;;
9547;SDS011;4812;51.992;8.648;2023-02-21T08:55:38;73.57;;;23.40;;
9547;SDS011;4812;51.992;8.648;2023-02-21T08:58:06;66.07;;;22.90;;
9547;SDS011;4812;51.992;8.648;2023-02-21T09:00:35;75.33;;;24.13;;
9547;SDS011;4812;51.992;8.648;2023-02-21T09:03:04;74.70;;;24.70;;
9547;SDS011;4812;51.992;8.648;2023-02-21T09:05:32;67.73;;;23.20;;
9547;SDS011;4812;51.992;8.648;2023-02-21T09:11:02;67.30;;;23.77;;
9547;SDS011;4812;51.992;8.648;2023-02-21T09:13:30;76.73;;;25.10;;
9547;SDS011;4812;51.992;8.648;2023-02-21T09:15:58;72.87;;;24.87;;
9547;SDS011;4812;51.992;8.648;2023-02-21T09:18:28;74.30;;;24.77;;
9547;SDS011;4812;51.992;8.648;2023-02-21T09:20:57;81.23;;;26.73;;
9547;SDS011;4812;51.992;8.648;2023-02-21T09:23:25;65.77;;;23.17;;
9547;SDS011;4812;51.992;8.648;2023-02-21T09:25:55;61.53;;;22.83;;
9547;SDS011;4812;51.992;8.648;2023-02-21T09:28:23;58.13;;;20.33;;
9547;SDS011;4812;51.992;8.648;2023-02-21T09:30:50;58.83;;;22.43;;
9547;SDS011;4812;51.992;8.648;2023-02-21T09:33:18;53.47;;;20.33;;
9547;SDS011;4812;51.992;8.648;2023-02-21T09:38:38;52.73;;;20.43;;
9547;SDS011;4812;51.992;8.648;2023-02-21T09:43:55;53.87;;;20.33;;
9547;SDS011;4812;51.992;8.648;2023-02-21T09:46:25;46.40;;;20.30;;
9547;SDS011;4812;51.992;8.648;2023-02-21T09:48:56;48.80;;;20.97;;
9547;SDS011;4812;51.992;8.648;2023-02-21T09:51:24;49.40;;;21.03;;
9547;SDS011;4812;51.992;8.648;2023-02-21T09:53:55;55.30;;;21.43;;
9547;SDS011;4812;51.992;8.648;2023-02-21T09:56:25;54.30;;;21.53;;
9547;SDS011;4812;51.992;8.648;2023-02-21T09:58:54;50.13;;;22.10;;
9547;SDS011;4812;51.992;8.648;2023-02-21T10:01:24;57.80;;;22.93;;
9547;SDS011;4812;51.992;8.648;2023-02-21T10:06:59;54.50;;;22.43;;
9547;SDS011;4812;51.992;8.648;2023-02-21T10:09:33;54.83;;;24.40;;
9547;SDS011;4812;51.992;8.648;2023-02-21T10:12:07;46.30;;;23.27;;
9547;SDS011;4812;51.992;8.648;2023-02-21T10:14:40;43.70;;;22.73;;
9547;SDS011;4812;51.992;8.648;2023-02-21T10:20:04;44.70;;;21.23;;
9547;SDS011;4812;51.992;8.648;2023-02-21T10:22:46;48.33;;;23.60;;
9547;SDS011;4812;51.992;8.648;2023-02-21T10:25:19;45.20;;;23.27;;
9547;SDS011;4812;51.992;8.648;2023-02-21T10:27:48;47.10;;;22.87;;
9547;SDS011;4812;51.992;8.648;2023-02-21T10:30:18;44.83;;;21.70;;
9547;SDS011;4812;51.992;8.648;2023-02-21T10:32:50;47.40;;;22.83;;
9547;SDS011;4812;51.992;8.648;2023-02-21T10:35:17;40.20;;;21.90;;
9547;SDS011;4812;51.992;8.648;2023-02-21T10:37:45;46.43;;;22.50;;
9547;SDS011;4812;51.992;8.648;2023-02-21T10:40:21;46.10;;;22.30;;
9547;SDS011;4812;51.992;8.648;2023-02-21T10:42:56;47.50;;;23.13;;
9547;SDS011;4812;51.992;8.648;2023-02-21T10:45:29;51.10;;;23.80;;
9547;SDS011;4812;51.992;8.648;2023-02-21T10:48:02;47.83;;;23.67;;
9547;SDS011;4812;51.992;8.648;2023-02-21T10:50:35;46.67;;;23.30;;
9547;SDS011;4812;51.992;8.648;2023-02-21T10:56:26;51.07;;;24.47;;
9547;SDS011;4812;51.992;8.648;2023-02-21T10:58:55;49.73;;;23.37;;
9547;SDS011;4812;51.992;8.648;2023-02-21T11:01:35;52.00;;;24.80;;
9547;SDS011;4812;51.992;8.648;2023-02-21T11:04:05;50.83;;;25.03;;
9547;SDS011;4812;51.992;8.648;2023-02-21T11:07:03;47.30;;;22.60;;
9547;SDS011;4812;51.992;8.648;2023-02-21T11:09:36;49.93;;;24.03;;
9547;SDS011;4812;51.992;8.648;2023-02-21T11:12:15;51.67;;;24.20;;
9547;SDS011;4812;51.992;8.648;2023-02-21T11:15:01;51.00;;;24.23;;
9547;SDS011;4812;51.992;8.648;2023-02-21T11:20:34;51.10;;;24.50;;
9547;SDS011;4812;51.992;8.648;2023-02-21T11:23:01;47.30;;;25.17;;
9547;SDS011;4812;51.992;8.648;2023-02-21T11:25:31;52.03;;;25.90;;
9547;SDS011;4812;51.992;8.648;2023-02-21T11:28:17;51.80;;;25.33;;
9547;SDS011;4812;51.992;8.648;2023-02-21T11:33:47;51.13;;;26.03;;
9547;SDS011;4812;51.992;8.648;2023-02-21T11:36:17;54.10;;;25.17;;
9547;SDS011;4812;51.992;8.648;2023-02-21T11:38:58;55.47;;;25.07;;
9547;SDS011;4812;51.992;8.648;2023-02-21T11:41:28;61.83;;;26.90;;
9547;SDS011;4812;51.992;8.648;2023-02-21T11:46:56;53.00;;;23.13;;
9547;SDS011;4812;51.992;8.648;2023-02-21T11:49:32;57.37;;;26.70;;
9547;SDS011;4812;51.992;8.648;2023-02-21T11:52:05;56.37;;;25.03;;
9547;SDS011;4812;51.992;8.648;2023-02-21T11:54:38;60.80;;;27.17;;
9547;SDS011;4812;51.992;8.648;2023-02-21T12:00:12;63.37;;;25.60;;
9547;SDS011;4812;51.992;8.648;2023-02-21T12:02:53;62.57;;;28.00;;
9547;SDS011;4812;51.992;8.648;2023-02-21T12:06:05;68.67;;;28.70;;
9547;SDS011;4812;51.992;8.648;2023-02-21T12:08:38;70.00;;;27.67;;
9547;SDS011;4812;51.992;8.648;2023-02-21T12:11:17;74.30;;;27.60;;
9547;SDS011;4812;51.992;8.648;2023-02-21T12:13:55;62.80;;;27.67;;
9547;SDS011;4812;51.992;8.648;2023-02-21T12:16:33;68.90;;;28.30;;
9547;SDS011;4812;51.992;8.648;2023-02-21T12:19:17;55.00;;;23.67;;
9547;SDS011;4812;51.992;8.648;2023-02-21T12:22:01;56.93;;;25.20;;
9547;SDS011;4812;51.992;8.648;2023-02-21T12:27:36;65.83;;;24.83;;
9547;SDS011;4812;51.992;8.648;2023-02-21T12:30:18;58.73;;;24.53;;
9547;SDS011;4812;51.992;8.648;2023-02-21T12:32:55;58.23;;;24.53;;
9547;SDS011;4812;51.992;8.648;2023-02-21T12:35:46;59.50;;;26.43;;
9547;SDS011;4812;51.992;8.648;2023-02-21T12:38:29;57.53;;;25.37;;
9547;SDS011;4812;51.992;8.648;2023-02-21T12:41:00;58.80;;;25.73;;
9547;SDS011;4812;51.992;8.648;2023-02-21T12:43:37;49.80;;;22.13;;
9547;SDS011;4812;51.992;8.648;2023-02-21T12:46:17;51.23;;;22.73;;
9547;SDS011;4812;51.992;8.648;2023-02-21T12:48:49;47.73;;;21.83;;
9547;SDS011;4812;51.992;8.648;2023-02-21T12:51:20;42.77;;;22.37;;
9547;SDS011;4812;51.992;8.648;2023-02-21T12:53:50;48.60;;;23.10;;
9547;SDS011;4812;51.992;8.648;2023-02-21T12:56:22;56.43;;;24.90;;
9547;SDS011;4812;51.992;8.648;2023-02-21T12:58:53;47.47;;;22.60;;
9547;SDS011;4812;51.992;8.648;2023-02-21T13:01:24;44.93;;;21.53;;
9547;SDS011;4812;51.992;8.648;2023-02-21T13:03:54;55.67;;;23.70;;
9547;SDS011;4812;51.992;8.648;2023-02-21T13:09:29;48.80;;;23.33;;
9547;SDS011;4812;51.992;8.648;2023-02-21T13:15:03;56.10;;;23.40;;
9547;SDS011;4812;51.992;8.648;2023-02-21T13:17:39;51.87;;;23.30;;
9547;SDS011;4812;51.992;8.648;2023-02-21T13:20:08;43.60;;;20.43;;
9547;SDS011;4812;51.992;8.648;2023-02-21T13:25:51;48.50;;;22.90;;
9547;SDS011;4812;51.992;8.648;2023-02-21T13:28:26;48.10;;;22.27;;
9547;SDS011;4812;51.992;8.648;2023-02-21T13:30:56;44.03;;;20.60;;
9547;SDS011;4812;51.992;8.648;2023-02-21T13:33:26;44.40;;;21.60;;
9547;SDS011;4812;51.992;8.648;2023-02-21T13:35:56;52.47;;;22.10;;
9547;SDS011;4812;51.992;8.648;2023-02-21T13:38:25;50.87;;;21.80;;
9547;SDS011;4812;51.992;8.648;2023-02-21T13:41:03;46.17;;;22.10;;
9547;SDS011;4812;51.992;8.648;2023-02-21T13:43:35;50.77;;;21.70;;
9547;SDS011;4812;51.992;8.648;2023-02-21T13:52:24;49.20;;;21.63;;
9547;SDS011;4812;51.992;8.648;2023-02-21T14:10:37;40.63;;;19.33;;
9547;SDS011;4812;51.992;8.648;2023-02-21T14:13:07;40.90;;;19.43;;
9547;SDS011;4812;51.992;8.648;2023-02-21T14:15:46;41.33;;;20.13;;
9547;SDS011;4812;51.992;8.648;2023-02-21T14:18:17;47.30;;;21.77;;
9547;SDS011;4812;51.992;8.648;2023-02-21T14:20:49;46.53;;;21.50;;
9547;SDS011;4812;51.992;8.648;2023-02-21T14:23:17;44.27;;;20.37;;
9547;SDS011;4812;51.992;8.648;2023-02-21T14:29:01;48.40;;;21.23;;
9547;SDS011;4812;51.992;8.648;2023-02-21T14:31:47;48.83;;;23.33;;
9547;SDS011;4812;51.992;8.648;2023-02-21T14:34:19;52.57;;;22.03;;
9547;SDS011;4812;51.992;8.648;2023-02-21T14:36:49;48.97;;;22.97;;
9547;SDS011;4812;51.992;8.648;2023-02-21T14:42:16;50.37;;;21.80;;
9547;SDS011;4812;51.992;8.648;2023-02-21T14:44:54;48.83;;;21.07;;
9547;SDS011;4812;51.992;8.648;2023-02-21T14:50:42;47.70;;;21.57;;
9547;SDS011;4812;51.992;8.648;2023-02-21T14:56:23;44.00;;;19.97;;
9547;SDS011;4812;51.992;8.648;2023-02-21T15:02:14;44.53;;;20.40;;
9547;SDS011;4812;51.992;8.648;2023-02-21T15:04:45;41.93;;;19.97;;
9547;SDS011;4812;51.992;8.648;2023-02-21T15:10:11;35.43;;;17.47;;
9547;SDS011;4812;51.992;8.648;2023-02-21T15:12:43;37.57;;;17.93;;
9547;SDS011;4812;51.992;8.648;2023-02-21T15:15:17;34.77;;;17.77;;
9547;SDS011;4812;51.992;8.648;2023-02-21T15:17:55;35.50;;;18.40;;
9547;SDS011;4812;51.992;8.648;2023-02-21T15:23:06;37.90;;;18.33;;
9547;SDS011;4812;51.992;8.648;2023-02-21T15:28:26;42.00;;;18.87;;
9547;SDS011;4812;51.992;8.648;2023-02-21T15:30:59;35.73;;;18.20;;
9547;SDS011;4812;51.992;8.648;2023-02-21T15:33:31;35.63;;;18.83;;
9547;SDS011;4812;51.992;8.648;2023-02-21T15:36:00;43.93;;;19.87;;
9547;SDS011;4812;51.992;8.648;2023-02-21T15:41:28;43.17;;;18.43;;
9547;SDS011;4812;51.992;8.648;2023-02-21T15:44:00;42.83;;;18.57;;
9547;SDS011;4812;51.992;8.648;2023-02-21T15:46:30;41.00;;;18.37;;
9547;SDS011;4812;51.992;8.648;2023-02-21T15:49:01;41.93;;;19.10;;
9547;SDS011;4812;51.992;8.648;2023-02-21T15:54:22;42.30;;;18.70;;
9547;SDS011;4812;51.992;8.648;2023-02-21T15:57:03;38.83;;;17.97;;
9547;SDS011;4812;51.992;8.648;2023-02-21T16:00:15;40.00;;;17.73;;
9547;SDS011;4812;51.992;8.648;2023-02-21T16:02:45;33.20;;;17.10;;
9547;SDS011;4812;51.992;8.648;2023-02-21T16:05:25;37.23;;;17.03;;
9547;SDS011;4812;51.992;8.648;2023-02-21T16:07:58;40.50;;;16.97;;
9547;SDS011;4812;51.992;8.648;2023-02-21T16:10:27;35.70;;;16.43;;
9547;SDS011;4812;51.992;8.648;2023-02-21T16:15:58;35.40;;;17.07;;
9547;SDS011;4812;51.992;8.648;2023-02-21T16:18:26;32.57;;;16.53;;
9547;SDS011;4812;51.992;8.648;2023-02-21T16:20:59;33.47;;;15.60;;
9547;SDS011;4812;51.992;8.648;2023-02-21T16:23:29;30.40;;;15.23;;
9547;SDS011;4812;51.992;8.648;2023-02-21T16:25:59;35.80;;;15.87;;
9547;SDS011;4812;51.992;8.648;2023-02-21T16:31:31;35.03;;;17.40;;
9547;SDS011;4812;51.992;8.648;2023-02-21T16:34:01;31.17;;;15.83;;
9547;SDS011;4812;51.992;8.648;2023-02-21T16:36:31;38.43;;;16.70;;
9547;SDS011;4812;51.992;8.648;2023-02-21T16:39:00;35.10;;;15.77;;
9547;SDS011;4812;51.992;8.648;2023-02-21T16:41:27;36.03;;;15.90;;
9547;SDS011;4812;51.992;8.648;2023-02-21T16:43:55;34.70;;;16.03;;
9547;SDS011;4812;51.992;8.648;2023-02-21T16:46:22;34.93;;;16.73;;
9547;SDS011;4812;51.992;8.648;2023-02-21T16:48:55;33.87;;;15.47;;
9547;SDS011;4812;51.992;8.648;2023-02-21T16:51:22;33.87;;;16.73;;
9547;SDS011;4812;51.992;8.648;2023-02-21T16:53:51;43.13;;;18.33;;
9547;SDS011;4812;51.992;8.648;2023-02-21T16:56:19;35.93;;;16.50;;
9547;SDS011;4812;51.992;8.648;2023-02-21T17:01:45;39.03;;;18.30;;
9547;SDS011;4812;51.992;8.648;2023-02-21T17:04:13;38.10;;;16.83;;
9547;SDS011;4812;51.992;8.648;2023-02-21T17:09:41;35.30;;;15.97;;
9547;SDS011;4812;51.992;8.648;2023-02-21T17:12:10;35.17;;;16.80;;
9547;SDS011;4812;51.992;8.648;2023-02-21T17:14:38;36.13;;;16.97;;
9547;SDS011;4812;51.992;8.648;2023-02-21T17:17:05;36.73;;;17.43;;
9547;SDS011;4812;51.992;8.648;2023-02-21T17:19:32;39.73;;;17.20;;
9547;SDS011;4812;51.992;8.648;2023-02-21T17:22:00;37.43;;;17.73;;
9547;SDS011;4812;51.992;8.648;2023-02-21T17:24:27;41.47;;;18.57;;
9547;SDS011;4812;51.992;8.648;2023-02-21T17:26:56;40.77;;;19.40;;
9547;SDS011;4812;51.992;8.648;2023-02-21T17:29:27;47.10;;;18.87;;
9547;SDS011;4812;51.992;8.648;2023-02-21T17:31:54;38.80;;;18.43;;
9547;SDS011;4812;51.992;8.648;2023-02-21T17:37:21;38.10;;;18.43;;
9547;SDS011;4812;51.992;8.648;2023-02-21T17:42:52;41.93;;;18.77;;
9547;SDS011;4812;51.992;8.648;2023-02-21T17:45:20;39.20;;;18.43;;
9547;SDS011;4812;51.992;8.648;2023-02-21T17:50:15;44.27;;;21.00;;
9547;SDS011;4812;51.992;8.648;2023-02-21T17:52:43;41.23;;;18.43;;
9547;SDS011;4812;51.992;8.648;2023-02-21T17:55:15;43.50;;;19.33;;
9547;SDS011;4812;51.992;8.648;2023-02-21T17:57:43;42.07;;;19.20;;
9547;SDS011;4812;51.992;8.648;2023-02-21T18:00:16;42.07;;;19.53;;
9547;SDS011;4812;51.992;8.648;2023-02-21T18:05:45;48.93;;;22.13;;
9547;SDS011;4812;51.992;8.648;2023-02-21T18:08:13;45.13;;;22.97;;
9547;SDS011;4812;51.992;8.648;2023-02-21T18:10:41;46.60;;;19.73;;
9547;SDS011;4812;51.992;8.648;2023-02-21T18:13:11;40.47;;;18.57;;
9547;SDS011;4812;51.992;8.648;2023-02-21T18:15:40;36.57;;;17.77;;
9547;SDS011;4812;51.992;8.648;2023-02-21T18:18:07;38.90;;;19.17;;
9547;SDS011;4812;51.992;8.648;2023-02-21T18:20:35;42.37;;;18.17;;
9547;SDS011;4812;51.992;8.648;2023-02-21T18:23:02;38.73;;;18.40;;
9547;SDS011;4812;51.992;8.648;2023-02-21T18:25:32;38.70;;;18.20;;
9547;SDS011;4812;51.992;8.648;2023-02-21T18:28:00;38.97;;;17.87;;
9547;SDS011;4812;51.992;8.648;2023-02-21T18:33:24;43.77;;;19.60;;
9547;SDS011;4812;51.992;8.648;2023-02-21T18:35:53;42.47;;;19.13;;
9547;SDS011;4812;51.992;8.648;2023-02-21T18:38:50;41.97;;;18.87;;
9547;SDS011;4812;51.992;8.648;2023-02-21T18:41:18;38.37;;;19.53;;
9547;SDS011;4812;51.992;8.648;2023-02-21T18:43:47;39.73;;;19.20;;
9547;SDS011;4812;51.992;8.648;2023-02-21T18:46:16;44.40;;;19.90;;
9547;SDS011;4812;51.992;8.648;2023-02-21T18:48:49;43.67;;;19.53;;
9547;SDS011;4812;51.992;8.648;2023-02-21T18:51:17;37.93;;;17.50;;
9547;SDS011;4812;51.992;8.648;2023-02-21T18:53:46;40.00;;;18.43;;
9547;SDS011;4812;51.992;8.648;2023-02-21T18:56:15;38.47;;;18.83;;
9547;SDS011;4812;51.992;8.648;2023-02-21T19:01:46;35.57;;;17.03;;
9547;SDS011;4812;51.992;8.648;2023-02-21T19:04:15;36.27;;;17.50;;